sensor_id;sensor_type;location;lat;lon;timestamp;P1;durP1;ratioP1;P2;durP2;ratioP2
27113;SDS011;14648;49.730;8.614;2023-06-14T00:01:50;6.33;;;4.53;;
27113;SDS011;14648;49.730;8.614;2023-06-14T00:04:16;7.67;;;5.07;;
27113;SDS011;14648;49.730;8.614;2023-06-14T00:06:42;9.50;;;5.10;;
27113;SDS011;14648;49.730;8.614;2023-06-14T00:09:10;6.20;;;4.60;;
27113;SDS011;14648;49.730;8.614;2023-06-14T00:11:42;10.40;;;5.03;;
27113;SDS011;14648;49.730;8.614;2023-06-14T00:14:08;5.07;;;4.67;;
27113;SDS011;14648;49.730;8.614;2023-06-14T00:16:34;6.60;;;4.20;;
27113;SDS011;14648;49.730;8.614;2023-06-14T00:19:01;6.87;;;4.73;;
27113;SDS011;14648;49.730;8.614;2023-06-14T00:21:30;18.77;;;4.27;;
27113;SDS011;14648;49.730;8.614;2023-06-14T00:23:57;4.57;;;4.17;;
27113;SDS011;14648;49.730;8.614;2023-06-14T00:26:23;4.77;;;4.00;;
27113;SDS011;14648;49.730;8.614;2023-06-14T00:28:51;9.10;;;4.67;;
27113;SDS011;14648;49.730;8.614;2023-06-14T00:31:17;12.43;;;4.20;;
27113;SDS011;14648;49.730;8.614;2023-06-14T00:33:43;5.47;;;4.50;;
27113;SDS011;14648;49.730;8.614;2023-06-14T00:36:09;5.40;;;4.90;;
27113;SDS011;14648;49.730;8.614;2023-06-14T00:38:34;5.20;;;4.70;;
27113;SDS011;14648;49.730;8.614;2023-06-14T00:41:00;8.27;;;4.83;;
27113;SDS011;14648;49.730;8.614;2023-06-14T00:43:26;5.17;;;4.43;;
27113;SDS011;14648;49.730;8.614;2023-06-14T00:45:51;8.73;;;4.77;;
27113;SDS011;14648;49.730;8.614;2023-06-14T00:48:23;7.90;;;4.37;;
27113;SDS011;14648;49.730;8.614;2023-06-14T00:50:50;5.07;;;4.57;;
27113;SDS011;14648;49.730;8.614;2023-06-14T00:53:17;4.70;;;4.30;;
27113;SDS011;14648;49.730;8.614;2023-06-14T00:55:45;6.00;;;4.33;;
27113;SDS011;14648;49.730;8.614;2023-06-14T00:58:12;5.20;;;4.50;;
27113;SDS011;14648;49.730;8.614;2023-06-14T01:00:38;5.77;;;5.27;;
27113;SDS011;14648;49.730;8.614;2023-06-14T01:03:04;7.43;;;4.33;;
27113;SDS011;14648;49.730;8.614;2023-06-14T01:05:30;6.57;;;4.37;;
27113;SDS011;14648;49.730;8.614;2023-06-14T01:13:33;8.30;;;5.07;;
27113;SDS011;14648;49.730;8.614;2023-06-14T01:16:03;4.60;;;4.20;;
27113;SDS011;14648;49.730;8.614;2023-06-14T01:18:32;4.43;;;4.03;;
27113;SDS011;14648;49.730;8.614;2023-06-14T01:20:58;4.50;;;3.77;;
27113;SDS011;14648;49.730;8.614;2023-06-14T01:23:24;5.03;;;4.47;;
27113;SDS011;14648;49.730;8.614;2023-06-14T01:25:58;4.93;;;4.23;;
27113;SDS011;14648;49.730;8.614;2023-06-14T01:28:25;5.03;;;4.60;;
27113;SDS011;14648;49.730;8.614;2023-06-14T01:30:57;7.50;;;5.10;;
27113;SDS011;14648;49.730;8.614;2023-06-14T01:33:29;10.57;;;5.70;;
27113;SDS011;14648;49.730;8.614;2023-06-14T01:35:56;5.83;;;4.67;;
27113;SDS011;14648;49.730;8.614;2023-06-14T01:38:23;5.40;;;5.00;;
27113;SDS011;14648;49.730;8.614;2023-06-14T01:40:51;6.63;;;5.10;;
27113;SDS011;14648;49.730;8.614;2023-06-14T01:43:20;7.87;;;5.20;;
27113;SDS011;14648;49.730;8.614;2023-06-14T01:45:47;7.73;;;5.50;;
27113;SDS011;14648;49.730;8.614;2023-06-14T01:48:15;6.97;;;5.77;;
27113;SDS011;14648;49.730;8.614;2023-06-14T01:50:41;7.10;;;4.50;;
27113;SDS011;14648;49.730;8.614;2023-06-14T01:53:07;4.90;;;4.40;;
27113;SDS011;14648;49.730;8.614;2023-06-14T01:55:34;6.17;;;4.60;;
27113;SDS011;14648;49.730;8.614;2023-06-14T01:58:02;4.63;;;4.20;;
27113;SDS011;14648;49.730;8.614;2023-06-14T02:00:29;8.90;;;4.77;;
27113;SDS011;14648;49.730;8.614;2023-06-14T02:02:55;4.27;;;3.93;;
27113;SDS011;14648;49.730;8.614;2023-06-14T02:05:21;5.53;;;4.60;;
27113;SDS011;14648;49.730;8.614;2023-06-14T02:07:47;5.43;;;4.60;;
27113;SDS011;14648;49.730;8.614;2023-06-14T02:10:13;6.03;;;4.70;;
27113;SDS011;14648;49.730;8.614;2023-06-14T02:12:40;4.77;;;4.37;;
27113;SDS011;14648;49.730;8.614;2023-06-14T02:15:06;4.60;;;4.20;;
27113;SDS011;14648;49.730;8.614;2023-06-14T02:17:33;4.93;;;4.43;;
27113;SDS011;14648;49.730;8.614;2023-06-14T02:19:59;5.30;;;4.90;;
27113;SDS011;14648;49.730;8.614;2023-06-14T02:22:25;7.10;;;4.67;;
27113;SDS011;14648;49.730;8.614;2023-06-14T02:24:51;6.10;;;4.77;;
27113;SDS011;14648;49.730;8.614;2023-06-14T02:27:17;5.60;;;5.00;;
27113;SDS011;14648;49.730;8.614;2023-06-14T02:29:43;4.93;;;4.43;;
27113;SDS011;14648;49.730;8.614;2023-06-14T02:32:09;5.23;;;4.73;;
27113;SDS011;14648;49.730;8.614;2023-06-14T02:34:35;5.63;;;4.50;;
27113;SDS011;14648;49.730;8.614;2023-06-14T02:37:01;14.00;;;5.33;;
27113;SDS011;14648;49.730;8.614;2023-06-14T02:39:28;6.20;;;4.50;;
27113;SDS011;14648;49.730;8.614;2023-06-14T02:41:54;17.63;;;5.13;;
27113;SDS011;14648;49.730;8.614;2023-06-14T02:44:24;6.20;;;4.63;;
27113;SDS011;14648;49.730;8.614;2023-06-14T02:46:53;4.80;;;4.27;;
27113;SDS011;14648;49.730;8.614;2023-06-14T02:49:20;4.60;;;4.20;;
27113;SDS011;14648;49.730;8.614;2023-06-14T02:51:47;7.03;;;5.23;;
27113;SDS011;14648;49.730;8.614;2023-06-14T02:54:13;7.03;;;4.50;;
27113;SDS011;14648;49.730;8.614;2023-06-14T02:56:39;5.90;;;4.53;;
27113;SDS011;14648;49.730;8.614;2023-06-14T02:59:05;8.57;;;4.70;;
27113;SDS011;14648;49.730;8.614;2023-06-14T03:01:32;9.03;;;5.03;;
27113;SDS011;14648;49.730;8.614;2023-06-14T03:04:04;5.83;;;4.40;;
27113;SDS011;14648;49.730;8.614;2023-06-14T03:06:29;7.53;;;5.47;;
27113;SDS011;14648;49.730;8.614;2023-06-14T03:08:56;6.33;;;5.03;;
27113;SDS011;14648;49.730;8.614;2023-06-14T03:11:26;5.50;;;5.00;;
27113;SDS011;14648;49.730;8.614;2023-06-14T03:13:52;7.00;;;4.20;;
27113;SDS011;14648;49.730;8.614;2023-06-14T03:16:18;5.07;;;3.97;;
27113;SDS011;14648;49.730;8.614;2023-06-14T03:18:45;10.37;;;4.40;;
27113;SDS011;14648;49.730;8.614;2023-06-14T03:21:11;5.90;;;4.87;;
27113;SDS011;14648;49.730;8.614;2023-06-14T03:23:36;6.33;;;4.67;;
27113;SDS011;14648;49.730;8.614;2023-06-14T03:26:02;4.97;;;4.53;;
27113;SDS011;14648;49.730;8.614;2023-06-14T03:28:28;4.53;;;4.13;;
27113;SDS011;14648;49.730;8.614;2023-06-14T03:30:53;7.30;;;4.43;;
27113;SDS011;14648;49.730;8.614;2023-06-14T03:33:19;7.63;;;4.80;;
27113;SDS011;14648;49.730;8.614;2023-06-14T03:35:45;5.27;;;4.73;;
27113;SDS011;14648;49.730;8.614;2023-06-14T03:38:11;6.30;;;4.50;;
27113;SDS011;14648;49.730;8.614;2023-06-14T03:40:37;6.30;;;5.20;;
27113;SDS011;14648;49.730;8.614;2023-06-14T03:43:03;6.80;;;5.30;;
27113;SDS011;14648;49.730;8.614;2023-06-14T03:45:29;5.33;;;4.83;;
27113;SDS011;14648;49.730;8.614;2023-06-14T03:47:54;5.77;;;4.73;;
27113;SDS011;14648;49.730;8.614;2023-06-14T03:50:21;5.40;;;4.90;;
27113;SDS011;14648;49.730;8.614;2023-06-14T03:52:48;5.57;;;4.60;;
27113;SDS011;14648;49.730;8.614;2023-06-14T03:55:14;5.37;;;4.83;;
27113;SDS011;14648;49.730;8.614;2023-06-14T03:57:41;5.40;;;4.90;;
27113;SDS011;14648;49.730;8.614;2023-06-14T04:00:08;9.10;;;4.70;;
27113;SDS011;14648;49.730;8.614;2023-06-14T04:02:35;5.77;;;5.27;;
27113;SDS011;14648;49.730;8.614;2023-06-14T04:05:01;6.03;;;4.90;;
27113;SDS011;14648;49.730;8.614;2023-06-14T04:07:28;8.10;;;4.90;;
27113;SDS011;14648;49.730;8.614;2023-06-14T04:09:54;5.83;;;5.33;;
27113;SDS011;14648;49.730;8.614;2023-06-14T04:12:20;6.33;;;4.67;;
27113;SDS011;14648;49.730;8.614;2023-06-14T04:14:46;7.47;;;4.97;;
27113;SDS011;14648;49.730;8.614;2023-06-14T04:17:11;8.10;;;5.53;;
27113;SDS011;14648;49.730;8.614;2023-06-14T04:19:37;6.63;;;5.23;;
27113;SDS011;14648;49.730;8.614;2023-06-14T04:22:03;8.60;;;5.17;;
27113;SDS011;14648;49.730;8.614;2023-06-14T04:24:29;6.77;;;4.67;;
27113;SDS011;14648;49.730;8.614;2023-06-14T04:26:59;7.03;;;4.90;;
27113;SDS011;14648;49.730;8.614;2023-06-14T04:29:26;8.03;;;5.10;;
27113;SDS011;14648;49.730;8.614;2023-06-14T04:31:54;9.20;;;4.80;;
27113;SDS011;14648;49.730;8.614;2023-06-14T04:34:24;5.43;;;4.33;;
27113;SDS011;14648;49.730;8.614;2023-06-14T04:36:55;7.63;;;4.90;;
27113;SDS011;14648;49.730;8.614;2023-06-14T04:39:21;5.70;;;4.77;;
27113;SDS011;14648;49.730;8.614;2023-06-14T04:41:48;6.90;;;5.17;;
27113;SDS011;14648;49.730;8.614;2023-06-14T04:44:17;7.87;;;4.80;;
27113;SDS011;14648;49.730;8.614;2023-06-14T04:46:44;7.43;;;5.30;;
27113;SDS011;14648;49.730;8.614;2023-06-14T04:49:14;7.90;;;5.20;;
27113;SDS011;14648;49.730;8.614;2023-06-14T04:51:41;6.83;;;5.00;;
27113;SDS011;14648;49.730;8.614;2023-06-14T04:54:08;8.07;;;5.17;;
27113;SDS011;14648;49.730;8.614;2023-06-14T04:56:40;4.70;;;4.27;;
27113;SDS011;14648;49.730;8.614;2023-06-14T04:59:07;11.83;;;5.17;;
27113;SDS011;14648;49.730;8.614;2023-06-14T05:01:34;11.40;;;5.47;;
27113;SDS011;14648;49.730;8.614;2023-06-14T05:04:00;5.43;;;4.90;;
27113;SDS011;14648;49.730;8.614;2023-06-14T05:06:26;7.43;;;5.93;;
27113;SDS011;14648;49.730;8.614;2023-06-14T05:08:52;5.97;;;4.53;;
27113;SDS011;14648;49.730;8.614;2023-06-14T05:11:18;5.87;;;5.37;;
27113;SDS011;14648;49.730;8.614;2023-06-14T05:13:45;5.03;;;4.20;;
27113;SDS011;14648;49.730;8.614;2023-06-14T05:16:11;4.67;;;4.27;;
27113;SDS011;14648;49.730;8.614;2023-06-14T05:18:37;5.07;;;4.57;;
27113;SDS011;14648;49.730;8.614;2023-06-14T05:21:05;5.87;;;5.30;;
27113;SDS011;14648;49.730;8.614;2023-06-14T05:23:31;8.90;;;5.07;;
27113;SDS011;14648;49.730;8.614;2023-06-14T05:25:57;6.43;;;5.00;;
27113;SDS011;14648;49.730;8.614;2023-06-14T05:28:23;11.07;;;5.00;;
27113;SDS011;14648;49.730;8.614;2023-06-14T05:30:49;5.70;;;5.10;;
27113;SDS011;14648;49.730;8.614;2023-06-14T05:33:16;9.07;;;4.63;;
27113;SDS011;14648;49.730;8.614;2023-06-14T05:35:42;7.30;;;5.17;;
27113;SDS011;14648;49.730;8.614;2023-06-14T05:38:07;5.10;;;4.60;;
27113;SDS011;14648;49.730;8.614;2023-06-14T05:40:33;5.73;;;4.40;;
27113;SDS011;14648;49.730;8.614;2023-06-14T05:42:59;4.47;;;4.07;;
27113;SDS011;14648;49.730;8.614;2023-06-14T05:45:25;5.30;;;4.80;;
27113;SDS011;14648;49.730;8.614;2023-06-14T05:47:53;5.13;;;4.63;;
27113;SDS011;14648;49.730;8.614;2023-06-14T05:50:21;7.73;;;4.77;;
27113;SDS011;14648;49.730;8.614;2023-06-14T05:52:47;5.47;;;4.97;;
27113;SDS011;14648;49.730;8.614;2023-06-14T05:55:12;8.37;;;4.83;;
27113;SDS011;14648;49.730;8.614;2023-06-14T05:57:38;8.43;;;4.70;;
27113;SDS011;14648;49.730;8.614;2023-06-14T06:00:05;5.63;;;5.03;;
27113;SDS011;14648;49.730;8.614;2023-06-14T06:02:39;10.00;;;5.57;;
27113;SDS011;14648;49.730;8.614;2023-06-14T06:05:12;4.73;;;4.33;;
27113;SDS011;14648;49.730;8.614;2023-06-14T06:07:38;11.40;;;5.00;;
27113;SDS011;14648;49.730;8.614;2023-06-14T06:10:10;6.20;;;5.37;;
27113;SDS011;14648;49.730;8.614;2023-06-14T06:12:36;5.23;;;4.77;;
27113;SDS011;14648;49.730;8.614;2023-06-14T06:15:02;7.03;;;4.90;;
27113;SDS011;14648;49.730;8.614;2023-06-14T06:17:29;7.10;;;4.60;;
27113;SDS011;14648;49.730;8.614;2023-06-14T06:19:54;4.80;;;4.20;;
27113;SDS011;14648;49.730;8.614;2023-06-14T06:22:20;6.03;;;4.10;;
27113;SDS011;14648;49.730;8.614;2023-06-14T06:24:46;8.90;;;4.27;;
27113;SDS011;14648;49.730;8.614;2023-06-14T06:27:12;5.03;;;3.97;;
27113;SDS011;14648;49.730;8.614;2023-06-14T06:29:38;7.67;;;5.10;;
27113;SDS011;14648;49.730;8.614;2023-06-14T06:32:03;6.17;;;4.13;;
27113;SDS011;14648;49.730;8.614;2023-06-14T06:34:30;7.87;;;4.73;;
27113;SDS011;14648;49.730;8.614;2023-06-14T06:36:55;4.90;;;3.80;;
27113;SDS011;14648;49.730;8.614;2023-06-14T06:39:21;17.17;;;4.77;;
27113;SDS011;14648;49.730;8.614;2023-06-14T06:41:47;9.50;;;4.37;;
27113;SDS011;14648;49.730;8.614;2023-06-14T06:44:12;6.10;;;4.13;;
27113;SDS011;14648;49.730;8.614;2023-06-14T06:46:38;4.87;;;4.30;;
27113;SDS011;14648;49.730;8.614;2023-06-14T06:49:08;5.20;;;4.50;;
27113;SDS011;14648;49.730;8.614;2023-06-14T06:51:37;7.00;;;4.93;;
27113;SDS011;14648;49.730;8.614;2023-06-14T06:54:07;6.63;;;5.07;;
27113;SDS011;14648;49.730;8.614;2023-06-14T06:56:33;9.13;;;5.10;;
27113;SDS011;14648;49.730;8.614;2023-06-14T06:58:59;9.13;;;5.73;;
27113;SDS011;14648;49.730;8.614;2023-06-14T07:01:26;5.50;;;4.33;;
27113;SDS011;14648;49.730;8.614;2023-06-14T07:03:54;6.73;;;4.30;;
27113;SDS011;14648;49.730;8.614;2023-06-14T07:06:20;6.00;;;5.00;;
27113;SDS011;14648;49.730;8.614;2023-06-14T07:08:46;5.90;;;5.27;;
27113;SDS011;14648;49.730;8.614;2023-06-14T07:11:13;9.27;;;4.73;;
27113;SDS011;14648;49.730;8.614;2023-06-14T07:13:39;6.97;;;4.93;;
27113;SDS011;14648;49.730;8.614;2023-06-14T07:16:05;5.07;;;4.50;;
27113;SDS011;14648;49.730;8.614;2023-06-14T07:18:31;6.80;;;4.90;;
27113;SDS011;14648;49.730;8.614;2023-06-14T07:20:57;11.13;;;5.60;;
27113;SDS011;14648;49.730;8.614;2023-06-14T07:23:23;4.17;;;3.83;;
27113;SDS011;14648;49.730;8.614;2023-06-14T07:25:48;7.13;;;4.30;;
27113;SDS011;14648;49.730;8.614;2023-06-14T07:28:16;4.53;;;4.13;;
27113;SDS011;14648;49.730;8.614;2023-06-14T07:30:42;5.77;;;4.70;;
27113;SDS011;14648;49.730;8.614;2023-06-14T07:33:08;6.43;;;4.57;;
27113;SDS011;14648;49.730;8.614;2023-06-14T07:35:36;5.43;;;4.30;;
27113;SDS011;14648;49.730;8.614;2023-06-14T07:38:02;7.10;;;5.20;;
27113;SDS011;14648;49.730;8.614;2023-06-14T07:40:27;4.80;;;4.40;;
27113;SDS011;14648;49.730;8.614;2023-06-14T07:42:53;4.83;;;4.30;;
27113;SDS011;14648;49.730;8.614;2023-06-14T07:45:22;6.60;;;4.50;;
27113;SDS011;14648;49.730;8.614;2023-06-14T07:47:48;7.47;;;4.80;;
27113;SDS011;14648;49.730;8.614;2023-06-14T07:50:15;11.23;;;4.70;;
27113;SDS011;14648;49.730;8.614;2023-06-14T07:52:40;5.97;;;4.57;;
27113;SDS011;14648;49.730;8.614;2023-06-14T07:55:06;5.57;;;5.07;;
27113;SDS011;14648;49.730;8.614;2023-06-14T07:57:32;4.40;;;3.93;;
27113;SDS011;14648;49.730;8.614;2023-06-14T07:59:58;7.23;;;4.93;;
27113;SDS011;14648;49.730;8.614;2023-06-14T08:02:24;4.47;;;3.90;;
27113;SDS011;14648;49.730;8.614;2023-06-14T08:04:49;5.60;;;3.80;;
27113;SDS011;14648;49.730;8.614;2023-06-14T08:07:15;3.97;;;3.67;;
27113;SDS011;14648;49.730;8.614;2023-06-14T08:09:41;5.13;;;4.20;;
27113;SDS011;14648;49.730;8.614;2023-06-14T08:12:07;5.97;;;3.33;;
27113;SDS011;14648;49.730;8.614;2023-06-14T08:14:35;11.97;;;3.90;;
27113;SDS011;14648;49.730;8.614;2023-06-14T08:17:01;5.27;;;4.17;;
27113;SDS011;14648;49.730;8.614;2023-06-14T08:19:26;5.80;;;4.20;;
27113;SDS011;14648;49.730;8.614;2023-06-14T08:21:53;6.43;;;4.50;;
27113;SDS011;14648;49.730;8.614;2023-06-14T08:24:23;4.13;;;3.80;;
27113;SDS011;14648;49.730;8.614;2023-06-14T08:26:49;4.43;;;4.03;;
27113;SDS011;14648;49.730;8.614;2023-06-14T08:29:15;6.87;;;3.87;;
27113;SDS011;14648;49.730;8.614;2023-06-14T08:31:41;7.07;;;3.93;;
27113;SDS011;14648;49.730;8.614;2023-06-14T08:34:07;5.33;;;3.70;;
27113;SDS011;14648;49.730;8.614;2023-06-14T08:36:33;11.57;;;3.50;;
27113;SDS011;14648;49.730;8.614;2023-06-14T08:39:00;4.17;;;3.77;;
27113;SDS011;14648;49.730;8.614;2023-06-14T08:41:26;4.60;;;3.63;;
27113;SDS011;14648;49.730;8.614;2023-06-14T08:43:54;6.10;;;3.50;;
27113;SDS011;14648;49.730;8.614;2023-06-14T08:46:21;5.90;;;3.03;;
27113;SDS011;14648;49.730;8.614;2023-06-14T08:48:52;5.10;;;3.13;;
27113;SDS011;14648;49.730;8.614;2023-06-14T08:51:24;4.50;;;2.80;;
27113;SDS011;14648;49.730;8.614;2023-06-14T08:53:53;3.37;;;3.10;;
27113;SDS011;14648;49.730;8.614;2023-06-14T08:56:26;4.83;;;3.23;;
27113;SDS011;14648;49.730;8.614;2023-06-14T08:58:54;3.97;;;2.93;;
27113;SDS011;14648;49.730;8.614;2023-06-14T09:01:21;3.40;;;3.03;;
27113;SDS011;14648;49.730;8.614;2023-06-14T09:03:48;3.23;;;2.90;;
27113;SDS011;14648;49.730;8.614;2023-06-14T09:06:15;2.80;;;2.60;;
27113;SDS011;14648;49.730;8.614;2023-06-14T09:08:45;8.53;;;4.00;;
27113;SDS011;14648;49.730;8.614;2023-06-14T09:11:13;2.50;;;2.33;;
27113;SDS011;14648;49.730;8.614;2023-06-14T09:13:41;4.50;;;2.93;;
27113;SDS011;14648;49.730;8.614;2023-06-14T09:16:08;5.67;;;2.73;;
27113;SDS011;14648;49.730;8.614;2023-06-14T09:18:34;2.60;;;2.40;;
27113;SDS011;14648;49.730;8.614;2023-06-14T09:21:12;4.07;;;2.77;;
27113;SDS011;14648;49.730;8.614;2023-06-14T09:23:40;2.53;;;2.33;;
27113;SDS011;14648;49.730;8.614;2023-06-14T09:26:12;6.20;;;2.23;;
27113;SDS011;14648;49.730;8.614;2023-06-14T09:28:45;3.93;;;2.40;;
27113;SDS011;14648;49.730;8.614;2023-06-14T09:31:19;3.47;;;2.53;;
27113;SDS011;14648;49.730;8.614;2023-06-14T09:33:46;4.03;;;2.50;;
27113;SDS011;14648;49.730;8.614;2023-06-14T09:36:21;12.60;;;2.90;;
27113;SDS011;14648;49.730;8.614;2023-06-14T09:39:06;2.40;;;2.20;;
27113;SDS011;14648;49.730;8.614;2023-06-14T09:41:34;3.70;;;2.30;;
27113;SDS011;14648;49.730;8.614;2023-06-14T09:44:08;2.70;;;2.50;;
27113;SDS011;14648;49.730;8.614;2023-06-14T09:46:36;2.33;;;2.23;;
27113;SDS011;14648;49.730;8.614;2023-06-14T09:49:03;3.10;;;2.13;;
27113;SDS011;14648;49.730;8.614;2023-06-14T09:51:30;2.53;;;2.33;;
27113;SDS011;14648;49.730;8.614;2023-06-14T09:53:58;5.43;;;2.27;;
27113;SDS011;14648;49.730;8.614;2023-06-14T09:59:03;3.50;;;2.30;;
27113;SDS011;14648;49.730;8.614;2023-06-14T10:01:34;2.38;;;2.17;;
27113;SDS011;14648;49.730;8.614;2023-06-14T10:04:07;3.08;;;1.90;;
27113;SDS011;14648;49.730;8.614;2023-06-14T10:06:38;2.00;;;1.90;;
27113;SDS011;14648;49.730;8.614;2023-06-14T10:09:07;2.25;;;2.13;;
27113;SDS011;14648;49.730;8.614;2023-06-14T10:11:35;3.70;;;3.25;;
27113;SDS011;14648;49.730;8.614;2023-06-14T10:14:02;6.53;;;2.50;;
27113;SDS011;14648;49.730;8.614;2023-06-14T10:16:31;2.63;;;2.42;;
27113;SDS011;14648;49.730;8.614;2023-06-14T10:22:19;3.80;;;2.63;;
27113;SDS011;14648;49.730;8.614;2023-06-14T10:25:29;3.72;;;3.42;;
27113;SDS011;14648;49.730;8.614;2023-06-14T10:28:03;2.75;;;2.55;;
27113;SDS011;14648;49.730;8.614;2023-06-14T10:31:04;2.38;;;2.28;;
27113;SDS011;14648;49.730;8.614;2023-06-14T10:33:37;3.97;;;2.80;;
27113;SDS011;14648;49.730;8.614;2023-06-14T10:36:24;2.30;;;2.20;;
27113;SDS011;14648;49.730;8.614;2023-06-14T10:38:59;2.97;;;2.70;;
27113;SDS011;14648;49.730;8.614;2023-06-14T10:41:50;5.93;;;3.03;;
27113;SDS011;14648;49.730;8.614;2023-06-14T10:46:47;2.90;;;2.70;;
27113;SDS011;14648;49.730;8.614;2023-06-14T10:49:21;2.67;;;2.47;;
27113;SDS011;14648;49.730;8.614;2023-06-14T10:52:13;3.33;;;3.00;;
27113;SDS011;14648;49.730;8.614;2023-06-14T10:55:00;4.32;;;2.70;;
27113;SDS011;14648;49.730;8.614;2023-06-14T10:57:58;4.45;;;2.90;;
27113;SDS011;14648;49.730;8.614;2023-06-14T11:00:24;2.70;;;2.50;;
27113;SDS011;14648;49.730;8.614;2023-06-14T11:03:04;3.50;;;3.20;;
27113;SDS011;14648;49.730;8.614;2023-06-14T11:05:57;3.08;;;2.88;;
27113;SDS011;14648;49.730;8.614;2023-06-14T11:11:31;4.18;;;3.25;;
27113;SDS011;14648;49.730;8.614;2023-06-14T11:14:01;2.65;;;2.53;;
27113;SDS011;14648;49.730;8.614;2023-06-14T11:16:27;3.55;;;2.42;;
27113;SDS011;14648;49.730;8.614;2023-06-14T11:18:53;2.65;;;2.55;;
27113;SDS011;14648;49.730;8.614;2023-06-14T11:21:20;2.25;;;2.10;;
27113;SDS011;14648;49.730;8.614;2023-06-14T11:23:49;2.70;;;2.50;;
27113;SDS011;14648;49.730;8.614;2023-06-14T11:26:23;2.53;;;2.10;;
27113;SDS011;14648;49.730;8.614;2023-06-14T11:28:57;4.05;;;2.92;;
27113;SDS011;14648;49.730;8.614;2023-06-14T11:31:24;2.88;;;2.67;;
27113;SDS011;14648;49.730;8.614;2023-06-14T11:33:55;3.60;;;2.83;;
27113;SDS011;14648;49.730;8.614;2023-06-14T11:36:31;6.13;;;2.95;;
27113;SDS011;14648;49.730;8.614;2023-06-14T11:38:59;9.43;;;3.17;;
27113;SDS011;14648;49.730;8.614;2023-06-14T11:41:25;4.65;;;2.67;;
27113;SDS011;14648;49.730;8.614;2023-06-14T11:44:10;2.88;;;2.67;;
27113;SDS011;14648;49.730;8.614;2023-06-14T11:46:36;3.50;;;2.30;;
27113;SDS011;14648;49.730;8.614;2023-06-14T11:49:03;3.38;;;3.10;;
27113;SDS011;14648;49.730;8.614;2023-06-14T11:51:30;2.83;;;2.35;;
27113;SDS011;14648;49.730;8.614;2023-06-14T11:54:01;4.22;;;2.65;;
27113;SDS011;14648;49.730;8.614;2023-06-14T11:56:28;4.53;;;2.80;;
27113;SDS011;14648;49.730;8.614;2023-06-14T11:58:56;2.42;;;2.33;;
27113;SDS011;14648;49.730;8.614;2023-06-14T12:01:22;2.30;;;2.20;;
27113;SDS011;14648;49.730;8.614;2023-06-14T12:03:49;3.13;;;2.65;;
27113;SDS011;14648;49.730;8.614;2023-06-14T12:06:15;5.05;;;2.63;;
27113;SDS011;14648;49.730;8.614;2023-06-14T12:08:55;3.63;;;2.60;;
27113;SDS011;14648;49.730;8.614;2023-06-14T12:11:21;7.18;;;2.80;;
27113;SDS011;14648;49.730;8.614;2023-06-14T12:13:47;3.58;;;2.65;;
27113;SDS011;14648;49.730;8.614;2023-06-14T12:16:14;2.78;;;2.58;;
27113;SDS011;14648;49.730;8.614;2023-06-14T12:18:40;4.13;;;3.00;;
27113;SDS011;14648;49.730;8.614;2023-06-14T12:21:08;3.25;;;3.00;;
27113;SDS011;14648;49.730;8.614;2023-06-14T12:23:48;3.30;;;2.25;;
27113;SDS011;14648;49.730;8.614;2023-06-14T12:28:42;4.50;;;2.80;;
27113;SDS011;14648;49.730;8.614;2023-06-14T12:31:09;2.90;;;2.70;;
27113;SDS011;14648;49.730;8.614;2023-06-14T12:33:37;3.00;;;2.80;;
27113;SDS011;14648;49.730;8.614;2023-06-14T12:36:04;3.55;;;2.67;;
27113;SDS011;14648;49.730;8.614;2023-06-14T12:38:32;2.95;;;2.33;;
27113;SDS011;14648;49.730;8.614;2023-06-14T12:40:58;2.90;;;2.70;;
27113;SDS011;14648;49.730;8.614;2023-06-14T12:43:24;4.93;;;2.78;;
27113;SDS011;14648;49.730;8.614;2023-06-14T12:45:49;2.40;;;2.20;;
27113;SDS011;14648;49.730;8.614;2023-06-14T12:48:15;2.70;;;2.55;;
27113;SDS011;14648;49.730;8.614;2023-06-14T12:50:41;2.20;;;2.10;;
27113;SDS011;14648;49.730;8.614;2023-06-14T12:53:07;3.13;;;2.85;;
27113;SDS011;14648;49.730;8.614;2023-06-14T12:55:33;2.88;;;2.20;;
27113;SDS011;14648;49.730;8.614;2023-06-14T12:57:58;2.40;;;2.30;;
27113;SDS011;14648;49.730;8.614;2023-06-14T13:00:24;2.30;;;2.20;;
27113;SDS011;14648;49.730;8.614;2023-06-14T13:02:55;3.28;;;2.35;;
27113;SDS011;14648;49.730;8.614;2023-06-14T13:05:22;4.63;;;2.65;;
27113;SDS011;14648;49.730;8.614;2023-06-14T13:07:48;2.47;;;2.38;;
27113;SDS011;14648;49.730;8.614;2023-06-14T13:10:16;3.78;;;2.50;;
27113;SDS011;14648;49.730;8.614;2023-06-14T13:12:42;3.20;;;3.00;;
27113;SDS011;14648;49.730;8.614;2023-06-14T13:15:08;2.45;;;2.08;;
27113;SDS011;14648;49.730;8.614;2023-06-14T13:17:35;2.38;;;2.28;;
27113;SDS011;14648;49.730;8.614;2023-06-14T13:20:06;2.85;;;2.20;;
27113;SDS011;14648;49.730;8.614;2023-06-14T13:22:36;5.30;;;2.70;;
27113;SDS011;14648;49.730;8.614;2023-06-14T13:25:03;3.38;;;2.97;;
27113;SDS011;14648;49.730;8.614;2023-06-14T13:27:29;2.67;;;2.47;;
27113;SDS011;14648;49.730;8.614;2023-06-14T13:29:55;2.35;;;2.05;;
27113;SDS011;14648;49.730;8.614;2023-06-14T13:32:21;3.42;;;1.85;;
27113;SDS011;14648;49.730;8.614;2023-06-14T13:34:48;3.22;;;2.88;;
27113;SDS011;14648;49.730;8.614;2023-06-14T13:37:13;2.50;;;2.30;;
27113;SDS011;14648;49.730;8.614;2023-06-14T13:39:39;2.58;;;2.38;;
27113;SDS011;14648;49.730;8.614;2023-06-14T13:42:05;2.58;;;2.38;;
27113;SDS011;14648;49.730;8.614;2023-06-14T13:44:31;4.03;;;2.97;;
27113;SDS011;14648;49.730;8.614;2023-06-14T13:46:57;2.53;;;2.33;;
27113;SDS011;14648;49.730;8.614;2023-06-14T13:49:23;6.05;;;3.33;;
27113;SDS011;14648;49.730;8.614;2023-06-14T13:51:48;6.82;;;2.83;;
27113;SDS011;14648;49.730;8.614;2023-06-14T13:54:14;2.55;;;2.45;;
27113;SDS011;14648;49.730;8.614;2023-06-14T13:56:40;7.43;;;2.92;;
27113;SDS011;14648;49.730;8.614;2023-06-14T13:59:06;4.32;;;2.92;;
27113;SDS011;14648;49.730;8.614;2023-06-14T14:01:32;2.90;;;2.70;;
27113;SDS011;14648;49.730;8.614;2023-06-14T14:03:58;3.60;;;3.08;;
27113;SDS011;14648;49.730;8.614;2023-06-14T14:06:25;3.63;;;2.53;;
27113;SDS011;14648;49.730;8.614;2023-06-14T14:08:51;3.20;;;2.42;;
27113;SDS011;14648;49.730;8.614;2023-06-14T14:11:18;2.60;;;2.50;;
27113;SDS011;14648;49.730;8.614;2023-06-14T14:13:45;3.53;;;2.35;;
27113;SDS011;14648;49.730;8.614;2023-06-14T14:16:11;2.72;;;2.53;;
27113;SDS011;14648;49.730;8.614;2023-06-14T14:18:38;2.55;;;2.45;;
27113;SDS011;14648;49.730;8.614;2023-06-14T14:21:04;2.28;;;2.17;;
27113;SDS011;14648;49.730;8.614;2023-06-14T14:23:31;2.78;;;2.47;;
27113;SDS011;14648;49.730;8.614;2023-06-14T14:25:56;3.53;;;2.33;;
27113;SDS011;14648;49.730;8.614;2023-06-14T14:28:22;2.70;;;2.50;;
27113;SDS011;14648;49.730;8.614;2023-06-14T14:30:48;4.45;;;2.78;;
27113;SDS011;14648;49.730;8.614;2023-06-14T14:33:14;2.50;;;2.30;;
27113;SDS011;14648;49.730;8.614;2023-06-14T14:35:43;4.10;;;2.47;;
27113;SDS011;14648;49.730;8.614;2023-06-14T14:38:12;2.58;;;2.42;;
27113;SDS011;14648;49.730;8.614;2023-06-14T14:40:40;2.75;;;2.40;;
27113;SDS011;14648;49.730;8.614;2023-06-14T14:43:06;2.97;;;2.78;;
27113;SDS011;14648;49.730;8.614;2023-06-14T14:45:32;2.40;;;2.25;;
27113;SDS011;14648;49.730;8.614;2023-06-14T14:48:03;7.03;;;2.10;;
27113;SDS011;14648;49.730;8.614;2023-06-14T14:50:30;4.10;;;2.00;;
27113;SDS011;14648;49.730;8.614;2023-06-14T14:52:55;2.65;;;2.53;;
27113;SDS011;14648;49.730;8.614;2023-06-14T14:55:21;2.75;;;2.45;;
27113;SDS011;14648;49.730;8.614;2023-06-14T14:57:47;2.95;;;2.35;;
27113;SDS011;14648;49.730;8.614;2023-06-14T15:00:13;3.25;;;2.95;;
27113;SDS011;14648;49.730;8.614;2023-06-14T15:02:39;7.57;;;2.50;;
27113;SDS011;14648;49.730;8.614;2023-06-14T15:05:05;2.28;;;2.15;;
27113;SDS011;14648;49.730;8.614;2023-06-14T15:07:31;2.33;;;2.13;;
27113;SDS011;14648;49.730;8.614;2023-06-14T15:09:58;3.28;;;2.17;;
27113;SDS011;14648;49.730;8.614;2023-06-14T15:12:25;2.63;;;2.50;;